Terminal Aerodrome Forecast
Issued by NWS Los Angeles, CA

Current Version | Previous Version | Text Only | Print | Product List | Glossary On
Versions: 1 2 3 4 5 6 7 8 9 10 11 12 13 14 15 16 17 18 19
000
FTUS46 KLOX 191700
TAFSMX
TAF
KSMX 191732Z 1918/2018 28004KT 6SM HZ BKN010
     FM191900 30010KT P6SM SKC
     FM200300 VRB03KT P6SM BKN007
     FM200900 VRB03KT 5SM BR OVC009
     FM201300 VRB03KT 3SM BR OVC009=

USA.gov is the U.S. government's official web portal to all federal, state and local government web resources and services.